Time;durP1;ratioP1;P1;durP2;ratioP2;P2;SDS_P1;SDS_P2;PMS_P1;PMS_P2;Temp;Humidity;BMP_temperature;BMP_pressure;BME280_temperature;BME280_humidity;BME280_pressure;Samples;Min_cycle;Max_cycle;Signal;HPM_P1;HPM_P2
2023/10/06 00:01:44;;;;;;;9.65;4.28;;;8.10;99.90;;;;;;4965400;28;20026;-82
2023/10/06 00:04:15;;;;;;;12.57;4.28;;;8.00;99.90;;;;;;4976319;28;20039;-79
2023/10/06 00:06:42;;;;;;;5.53;3.47;;;8.00;99.90;;;;;;4972834;28;20457;-82
2023/10/06 00:12:07;;;;;;;8.05;4.13;;;7.90;99.90;;;;;;4968010;28;20058;-79
2023/10/06 00:14:39;;;;;;;6.38;3.63;;;7.90;99.90;;;;;;4963448;28;20043;-79
2023/10/06 00:17:17;;;;;;;6.03;4.07;;;7.90;99.90;;;;;;4984180;28;20041;-79
2023/10/06 00:19:54;;;;;;;6.30;3.65;;;7.90;99.90;;;;;;4973478;28;20018;-79
2023/10/06 00:22:20;;;;;;;7.15;3.85;;;7.90;99.90;;;;;;4979567;28;20027;-80
2023/10/06 00:24:55;;;;;;;9.23;3.70;;;7.90;99.90;;;;;;4986819;28;20052;-80
2023/10/06 00:27:23;;;;;;;5.88;3.42;;;7.80;99.90;;;;;;4983466;28;20034;-81
2023/10/06 00:29:54;;;;;;;5.75;3.67;;;7.70;99.90;;;;;;4981969;28;20049;-79
2023/10/06 00:32:25;;;;;;;7.07;3.67;;;7.70;99.90;;;;;;4979564;28;20042;-79
2023/10/06 00:35:11;;;;;;;7.10;3.60;;;7.70;99.90;;;;;;4967375;28;20514;-80
2023/10/06 00:37:38;;;;;;;6.90;3.47;;;7.70;99.90;;;;;;4962591;28;20419;-80
2023/10/06 00:40:19;;;;;;;5.38;3.45;;;7.60;99.90;;;;;;4988210;28;20035;-80
2023/10/06 00:42:53;;;;;;;5.63;3.55;;;7.60;99.90;;;;;;4982411;28;20015;-80
2023/10/06 00:45:21;;;;;;;4.65;3.22;;;7.60;99.90;;;;;;4981117;28;20091;-80
2023/10/06 00:47:52;;;;;;;7.10;3.13;;;7.60;99.90;;;;;;4987279;28;20081;-80
2023/10/06 00:50:23;;;;;;;3.60;2.70;;;7.60;99.90;;;;;;4978212;28;20408;-80
2023/10/06 00:52:50;;;;;;;5.90;3.00;;;7.50;99.90;;;;;;4983446;28;20033;-80
2023/10/06 00:55:17;;;;;;;8.25;3.78;;;7.50;99.90;;;;;;4963119;28;20053;-80
2023/10/06 00:57:52;;;;;;;6.35;3.72;;;7.50;99.90;;;;;;4981475;28;20094;-83
2023/10/06 01:00:20;;;;;;;7.47;4.05;;;7.50;99.90;;;;;;4960667;28;20031;-81
2023/10/06 01:02:47;;;;;;;7.72;3.55;;;7.50;99.90;;;;;;4978818;28;20030;-79
2023/10/06 01:05:16;;;;;;;5.78;3.78;;;7.40;99.90;;;;;;4986029;28;20390;-80
2023/10/06 01:07:48;;;;;;;5.70;3.30;;;7.40;99.90;;;;;;4976440;28;20114;-81
2023/10/06 01:10:18;;;;;;;7.93;3.67;;;7.50;99.90;;;;;;4961451;28;20073;-81
2023/10/06 01:12:50;;;;;;;11.10;4.40;;;7.50;99.90;;;;;;4963971;28;20086;-82
2023/10/06 01:15:17;;;;;;;7.22;3.63;;;7.40;99.90;;;;;;4982406;28;20042;-82
2023/10/06 01:17:47;;;;;;;7.25;4.15;;;7.40;99.90;;;;;;4962383;28;20492;-80
2023/10/06 01:20:33;;;;;;;7.25;3.90;;;7.40;99.90;;;;;;4959802;28;20034;-80
2023/10/06 01:23:00;;;;;;;11.57;4.68;;;7.40;99.90;;;;;;4983301;28;20101;-80
2023/10/06 01:25:27;;;;;;;7.82;4.43;;;7.40;99.90;;;;;;4959862;28;20086;-81
2023/10/06 01:27:53;;;;;;;10.38;4.22;;;7.30;99.90;;;;;;4959323;28;20061;-81
2023/10/06 01:30:19;;;;;;;8.98;4.43;;;7.30;99.90;;;;;;4983245;28;20030;-80
2023/10/06 01:32:49;;;;;;;7.68;4.63;;;7.30;99.90;;;;;;4964262;28;20550;-79
2023/10/06 01:35:15;;;;;;;6.72;4.22;;;7.30;99.90;;;;;;4966478;28;20117;-79
2023/10/06 01:37:42;;;;;;;9.38;4.80;;;7.30;99.90;;;;;;4983709;28;20035;-79
2023/10/06 01:42:51;;;;;;;7.07;4.18;;;7.40;99.90;;;;;;4953099;28;20054;-79
2023/10/06 01:45:21;;;;;;;7.43;4.18;;;7.40;99.90;;;;;;4964894;28;20023;-80
2023/10/06 01:48:22;;;;;;;7.22;3.80;;;7.40;99.90;;;;;;4980652;28;20538;-79
2023/10/06 01:51:03;;;;;;;6.32;4.15;;;7.40;99.90;;;;;;4968781;28;20045;-79
2023/10/06 01:53:35;;;;;;;7.20;3.58;;;7.40;99.90;;;;;;4984838;28;20041;-79
2023/10/06 01:56:06;;;;;;;7.10;3.90;;;7.40;99.90;;;;;;4950802;28;20066;-79
2023/10/06 01:58:32;;;;;;;7.68;4.10;;;7.40;99.90;;;;;;4984088;28;20395;-79
2023/10/06 02:00:58;;;;;;;7.32;4.30;;;7.30;99.90;;;;;;4967189;28;20022;-79
2023/10/06 02:03:24;;;;;;;9.43;3.72;;;7.30;99.90;;;;;;4972165;28;20023;-80
2023/10/06 02:05:55;;;;;;;4.35;3.22;;;7.30;99.90;;;;;;4964190;28;20023;-79
2023/10/06 02:08:21;;;;;;;5.57;3.60;;;7.30;99.90;;;;;;4976968;28;20042;-79
2023/10/06 02:10:47;;;;;;;6.32;3.50;;;7.30;99.90;;;;;;4962251;28;20496;-80
2023/10/06 02:13:20;;;;;;;4.53;2.88;;;7.30;99.90;;;;;;4965998;28;20046;-79
2023/10/06 02:15:58;;;;;;;5.35;2.97;;;7.20;99.90;;;;;;4960828;28;20063;-80
2023/10/06 02:18:35;;;;;;;7.85;3.10;;;7.30;99.90;;;;;;4961855;28;20030;-79
2023/10/06 02:21:14;;;;;;;5.05;3.17;;;7.20;99.90;;;;;;4980860;28;20061;-80
2023/10/06 02:23:41;;;;;;;5.60;3.03;;;7.20;99.90;;;;;;4959793;28;20034;-79
2023/10/06 02:26:13;;;;;;;5.10;3.20;;;7.10;99.90;;;;;;4944179;28;20031;-80
2023/10/06 02:28:48;;;;;;;6.43;4.03;;;7.10;99.90;;;;;;4982776;28;20031;-80
2023/10/06 02:31:14;;;;;;;8.70;3.72;;;7.10;99.90;;;;;;4956514;28;20023;-82
2023/10/06 02:33:41;;;;;;;5.30;3.88;;;7.10;99.90;;;;;;4951324;28;20029;-81
2023/10/06 02:36:23;;;;;;;5.07;3.47;;;7.10;99.90;;;;;;4954385;28;20038;-81
2023/10/06 02:38:50;;;;;;;7.28;4.07;;;7.00;99.90;;;;;;4940250;28;20186;-80
2023/10/06 02:41:21;;;;;;;6.07;4.05;;;7.00;99.90;;;;;;4968111;28;20185;-80
2023/10/06 02:43:51;;;;;;;6.45;3.88;;;7.00;99.90;;;;;;4977303;28;20027;-81
2023/10/06 02:46:22;;;;;;;6.35;3.65;;;6.90;99.90;;;;;;4961254;28;20022;-80
2023/10/06 02:48:49;;;;;;;8.52;4.30;;;6.90;99.90;;;;;;4961096;28;20034;-82
2023/10/06 02:51:54;;;;;;;7.07;3.50;;;6.90;99.90;;;;;;4957550;28;20081;-81
2023/10/06 02:56:38;;;;;;;5.72;3.95;;;6.90;99.90;;;;;;4959491;28;20057;-80
2023/10/06 02:59:20;;;;;;;7.28;3.72;;;6.90;99.90;;;;;;4967052;28;20031;-81
2023/10/06 03:01:56;;;;;;;8.15;4.93;;;6.90;99.90;;;;;;4970788;28;20105;-80
2023/10/06 03:04:27;;;;;;;8.10;4.25;;;6.90;99.90;;;;;;4975892;28;20055;-80
2023/10/06 03:06:58;;;;;;;7.25;3.80;;;6.80;99.90;;;;;;4968269;28;20038;-82
2023/10/06 03:09:45;;;;;;;5.35;4.13;;;6.80;99.90;;;;;;4955101;28;20031;-81
2023/10/06 03:12:32;;;;;;;6.03;3.92;;;6.80;99.90;;;;;;4945006;28;20407;-80
2023/10/06 03:14:58;;;;;;;5.60;4.00;;;6.80;99.90;;;;;;4941161;28;20058;-81
2023/10/06 03:17:25;;;;;;;4.85;3.90;;;6.70;99.90;;;;;;4941886;28;20407;-80
2023/10/06 03:20:11;;;;;;;6.20;4.10;;;6.70;99.90;;;;;;4977219;28;20031;-80
2023/10/06 03:22:38;;;;;;;6.60;4.10;;;6.70;99.90;;;;;;4961439;28;20086;-81
2023/10/06 03:25:15;;;;;;;5.50;4.40;;;6.70;99.90;;;;;;4943479;28;20034;-80
2023/10/06 03:27:41;;;;;;;6.68;3.70;;;6.70;99.90;;;;;;4956492;28;20035;-80
2023/10/06 03:30:17;;;;;;;5.60;4.30;;;6.70;99.90;;;;;;4943444;28;20039;-80
2023/10/06 03:32:48;;;;;;;;;;;6.60;99.90;;;;;;4977355;28;20073;-81
2023/10/06 03:35:23;;;;;;;6.20;4.53;;;6.60;99.90;;;;;;4972561;28;19921;-82
2023/10/06 03:38:08;;;;;;;7.47;4.70;;;6.60;99.90;;;;;;4963923;28;20034;-80
2023/10/06 03:40:48;;;;;;;7.35;4.60;;;6.60;99.90;;;;;;4968693;28;20033;-82
2023/10/06 03:43:14;;;;;;;8.90;4.70;;;6.60;99.90;;;;;;4968892;28;20047;-83
2023/10/06 03:45:41;;;;;;;5.47;4.35;;;6.60;99.90;;;;;;4970495;28;20041;-82
2023/10/06 03:48:13;;;;;;;5.65;4.57;;;6.60;99.90;;;;;;4963927;28;20029;-80
2023/10/06 03:50:43;;;;;;;7.43;4.72;;;6.60;99.90;;;;;;4967295;28;20035;-81
2023/10/06 03:53:13;;;;;;;5.63;4.38;;;6.60;99.90;;;;;;4969784;28;20034;-82
2023/10/06 03:55:40;;;;;;;11.10;4.07;;;6.60;99.90;;;;;;4983122;28;20030;-83
2023/10/06 03:58:07;;;;;;;4.45;3.60;;;6.50;99.90;;;;;;4974789;28;20117;-82
2023/10/06 04:00:38;;;;;;;4.43;3.50;;;6.50;99.90;;;;;;4981521;28;20039;-82
2023/10/06 04:03:13;;;;;;;4.55;3.30;;;6.50;99.90;;;;;;4984652;28;20176;-82
2023/10/06 04:05:40;;;;;;;3.63;3.28;;;6.50;99.90;;;;;;4968295;28;20030;-83
2023/10/06 04:08:17;;;;;;;3.92;3.15;;;6.50;99.90;;;;;;4967028;28;20130;-83
2023/10/06 04:10:44;;;;;;;3.65;3.03;;;6.50;99.90;;;;;;4974648;28;20035;-82
2023/10/06 04:13:10;;;;;;;5.68;3.30;;;6.50;99.90;;;;;;4982944;28;20054;-82
2023/10/06 04:15:44;;;;;;;3.67;3.28;;;6.40;99.90;;;;;;4978991;28;20038;-82
2023/10/06 04:18:10;;;;;;;5.32;3.80;;;6.40;99.90;;;;;;4974930;28;20042;-81
2023/10/06 04:20:43;;;;;;;4.68;3.58;;;6.40;99.90;;;;;;4980442;28;20052;-81
2023/10/06 04:23:11;;;;;;;3.35;3.05;;;6.40;99.90;;;;;;4982650;28;20058;-82
2023/10/06 04:25:38;;;;;;;8.20;3.75;;;6.40;99.90;;;;;;4979267;28;20022;-81
2023/10/06 04:28:08;;;;;;;5.18;3.65;;;6.40;99.90;;;;;;4984476;28;20039;-80
2023/10/06 04:30:37;;;;;;;5.97;3.80;;;6.40;99.90;;;;;;4961617;28;20045;-81
2023/10/06 04:33:05;;;;;;;7.05;4.15;;;6.40;99.90;;;;;;4974299;28;20053;-81
2023/10/06 04:35:34;;;;;;;7.72;4.50;;;6.40;99.90;;;;;;4978722;28;20109;-82
2023/10/06 04:38:01;;;;;;;6.97;4.68;;;6.30;99.90;;;;;;4973463;28;20031;-82
2023/10/06 04:40:27;;;;;;;11.77;4.85;;;6.30;99.90;;;;;;4974423;28;20050;-81
2023/10/06 04:42:54;;;;;;;5.75;3.83;;;6.30;99.90;;;;;;4973789;28;20404;-81
2023/10/06 04:45:20;;;;;;;7.68;4.13;;;6.30;99.90;;;;;;4941192;28;20027;-81
2023/10/06 04:47:46;;;;;;;8.40;4.50;;;6.30;99.90;;;;;;4964625;28;20395;-81
2023/10/06 04:50:12;;;;;;;6.85;4.40;;;6.30;99.90;;;;;;4973133;28;20031;-81
2023/10/06 04:52:56;;;;;;;14.23;7.07;;;6.30;99.90;;;;;;4956825;28;20459;-81
2023/10/06 04:55:22;;;;;;;8.32;5.80;;;6.30;99.90;;;;;;4976092;28;20077;-81
2023/10/06 04:57:48;;;;;;;8.00;5.70;;;6.30;99.90;;;;;;4954192;28;20030;-81
2023/10/06 05:00:19;;;;;;;9.15;4.30;;;6.20;99.90;;;;;;4973223;28;20143;-83
2023/10/06 05:02:51;;;;;;;7.03;4.72;;;6.30;99.90;;;;;;4970070;28;20033;-81
2023/10/06 05:05:38;;;;;;;8.93;5.00;;;6.30;99.90;;;;;;4973084;28;20064;-81
2023/10/06 05:08:05;;;;;;;4.85;4.18;;;6.30;99.90;;;;;;4974639;28;20045;-81
2023/10/06 05:10:31;;;;;;;5.60;4.18;;;6.20;99.90;;;;;;4976437;28;20037;-81
2023/10/06 05:13:05;;;;;;;10.05;4.95;;;6.20;99.90;;;;;;4972795;28;20031;-81
2023/10/06 05:15:31;;;;;;;9.05;4.82;;;6.20;99.90;;;;;;4953872;28;20112;-81
2023/10/06 05:17:58;;;;;;;8.82;5.10;;;6.00;99.90;;;;;;4971570;28;20584;-82
2023/10/06 05:20:32;;;;;;;9.63;6.38;;;6.10;99.90;;;;;;4972085;28;20459;-81
2023/10/06 05:23:09;;;;;;;10.60;6.80;;;6.00;99.90;;;;;;4952249;28;20039;-81
2023/10/06 05:25:39;;;;;;;10.75;7.07;;;5.90;99.90;;;;;;4975607;28;20549;-79
2023/10/06 05:28:07;;;;;;;9.90;6.47;;;5.90;99.90;;;;;;4962508;28;20579;-80
2023/10/06 05:30:33;;;;;;;10.05;5.80;;;5.90;99.90;;;;;;4971583;28;20046;-80
2023/10/06 05:33:03;;;;;;;8.55;5.05;;;5.90;99.90;;;;;;4937621;28;20196;-80
2023/10/06 05:35:36;;;;;;;8.85;5.13;;;6.00;99.90;;;;;;4959469;28;21039;-80
2023/10/06 05:38:13;;;;;;;11.10;5.60;;;6.00;99.90;;;;;;4973037;28;20031;-82
2023/10/06 05:40:42;;;;;;;15.48;6.25;;;6.00;99.90;;;;;;4971906;28;20019;-80
2023/10/06 05:43:17;;;;;;;16.63;6.18;;;5.90;99.90;;;;;;4968319;28;20404;-80
2023/10/06 05:45:51;;;;;;;20.15;6.70;;;5.80;99.90;;;;;;4970947;28;20037;-80
2023/10/06 05:48:21;;;;;;;14.05;6.70;;;5.70;99.90;;;;;;4974947;28;20558;-81
2023/10/06 05:50:48;;;;;;;19.13;7.55;;;5.70;99.90;;;;;;4972322;28;20589;-81
2023/10/06 05:53:22;;;;;;;21.10;7.47;;;5.70;99.90;;;;;;4974153;28;20038;-81
2023/10/06 05:55:52;;;;;;;21.63;7.93;;;5.80;99.90;;;;;;4974160;28;20031;-82
2023/10/06 05:58:23;;;;;;;16.10;7.25;;;5.80;99.90;;;;;;4970440;28;20102;-83
2023/10/06 06:00:55;;;;;;;14.82;6.28;;;5.90;99.90;;;;;;4942631;28;20169;-82
2023/10/06 06:03:23;;;;;;;10.18;4.78;;;6.00;99.90;;;;;;4973969;28;20027;-79
2023/10/06 06:05:57;;;;;;;18.38;7.32;;;6.00;99.90;;;;;;4979509;28;20391;-80
2023/10/06 06:08:23;;;;;;;19.58;6.90;;;6.10;99.90;;;;;;4973450;28;20066;-81
2023/10/06 06:10:49;;;;;;;12.73;5.57;;;6.10;99.90;;;;;;4958326;28;20027;-81
2023/10/06 06:13:18;;;;;;;14.07;7.03;;;6.20;99.90;;;;;;4962092;28;20073;-80
2023/10/06 06:15:44;;;;;;;23.02;10.07;;;6.20;99.90;;;;;;4978165;28;20578;-80
2023/10/06 06:18:10;;;;;;;21.90;8.30;;;6.30;99.90;;;;;;4980318;28;20057;-79
2023/10/06 06:20:41;;;;;;;22.75;9.15;;;6.30;99.90;;;;;;4975541;28;20050;-82
2023/10/06 06:23:12;;;;;;;26.65;11.20;;;6.40;99.90;;;;;;4954428;28;20034;-84
2023/10/06 06:25:40;;;;;;;21.35;9.27;;;6.40;99.90;;;;;;4979517;28;20046;-79
2023/10/06 06:28:07;;;;;;;24.65;10.48;;;6.40;99.90;;;;;;4957576;28;20283;-81
2023/10/06 06:30:39;;;;;;;30.05;8.73;;;6.40;99.90;;;;;;4975364;28;20066;-81
2023/10/06 06:33:08;;;;;;;53.38;8.75;;;6.40;99.90;;;;;;4957353;28;20103;-81
2023/10/06 06:35:35;;;;;;;28.52;7.80;;;6.40;99.90;;;;;;4975720;28;20049;-80
2023/10/06 06:38:05;;;;;;;21.27;7.47;;;6.30;99.90;;;;;;4960335;28;20589;-80
2023/10/06 06:40:32;;;;;;;27.75;7.78;;;6.30;99.90;;;;;;4946173;28;20047;-79
2023/10/06 06:43:00;;;;;;;13.35;7.30;;;6.30;99.90;;;;;;4975605;28;20042;-79
2023/10/06 06:45:28;;;;;;;20.95;6.78;;;6.30;99.90;;;;;;4975425;28;20528;-80
2023/10/06 06:47:55;;;;;;;29.00;6.40;;;6.40;99.90;;;;;;4958615;28;20035;-79
2023/10/06 06:50:21;;;;;;;54.83;6.90;;;6.40;99.90;;;;;;4971664;28;20139;-83
2023/10/06 06:52:50;;;;;;;32.15;7.03;;;6.40;99.90;;;;;;4970739;28;20503;-83
2023/10/06 06:55:17;;;;;;;18.73;6.72;;;6.40;99.90;;;;;;4955210;28;20038;-83
2023/10/06 06:57:45;;;;;;;35.50;6.65;;;6.40;99.90;;;;;;4952999;28;20484;-83
2023/10/06 07:00:17;;;;;;;47.45;7.45;;;6.40;99.90;;;;;;4934562;28;20102;-81
2023/10/06 07:02:47;;;;;;;49.35;8.35;;;6.40;99.90;;;;;;4935488;28;20133;-83
2023/10/06 07:05:14;;;;;;;57.75;6.88;;;6.40;99.90;;;;;;4967991;28;20075;-83
2023/10/06 07:07:43;;;;;;;44.55;8.40;;;6.40;99.90;;;;;;4951389;28;20069;-81
2023/10/06 07:10:22;;;;;;;62.22;9.43;;;6.40;99.90;;;;;;4950237;28;20032;-79
2023/10/06 07:12:50;;;;;;;84.43;15.35;;;6.40;99.90;;;;;;4941190;29;20520;-80
2023/10/06 07:15:18;;;;;;;53.20;9.82;;;6.50;99.90;;;;;;4956924;28;20045;-79
2023/10/06 07:17:53;;;;;;;22.83;8.35;;;6.60;99.90;;;;;;4976964;28;20110;-80
2023/10/06 07:20:24;;;;;;;26.95;9.52;;;6.70;99.90;;;;;;4972695;28;20027;-80
2023/10/06 07:22:54;;;;;;;23.10;9.80;;;6.80;99.90;;;;;;4976846;28;20027;-83
2023/10/06 07:25:21;;;;;;;54.85;11.73;;;6.80;99.90;;;;;;4956489;28;20034;-79
2023/10/06 07:27:49;;;;;;;26.83;10.75;;;6.90;99.90;;;;;;4965281;28;20039;-80
2023/10/06 07:30:15;;;;;;;55.72;11.13;;;7.00;99.90;;;;;;4987302;28;20031;-80
2023/10/06 07:32:43;;;;;;;102.65;13.52;;;7.10;99.90;;;;;;4979523;28;20031;-83
2023/10/06 07:35:13;;;;;;;157.73;13.90;;;7.20;99.90;;;;;;4972822;28;20034;-82
2023/10/06 07:37:45;;;;;;;24.67;10.85;;;7.20;99.90;;;;;;4975376;28;20082;-81
2023/10/06 07:40:18;;;;;;;105.68;14.68;;;7.20;99.90;;;;;;4957548;28;20496;-80
2023/10/06 07:42:49;;;;;;;36.35;12.02;;;7.20;99.90;;;;;;4972473;28;20042;-82
2023/10/06 07:45:17;;;;;;;45.83;13.25;;;7.40;99.90;;;;;;4978476;28;20042;-81
2023/10/06 07:47:44;;;;;;;28.55;13.88;;;7.50;99.90;;;;;;4961202;28;20062;-80
2023/10/06 07:50:13;;;;;;;73.55;12.85;;;7.60;99.90;;;;;;4984546;28;20555;-80
2023/10/06 07:52:41;;;;;;;24.15;12.38;;;7.70;99.90;;;;;;4971107;28;20088;-82
2023/10/06 07:55:09;;;;;;;47.00;12.95;;;7.80;99.90;;;;;;4953509;28;20094;-81
2023/10/06 07:57:48;;;;;;;55.22;15.32;;;7.90;99.90;;;;;;4973175;28;20086;-81
2023/10/06 08:00:27;;;;;;;57.47;12.75;;;8.00;99.90;;;;;;4975346;28;20422;-79
2023/10/06 08:02:58;;;;;;;27.60;12.52;;;8.00;99.90;;;;;;4983891;28;20027;-79
2023/10/06 08:05:24;;;;;;;33.00;11.32;;;8.10;99.90;;;;;;4959473;28;20030;-79
2023/10/06 08:07:52;;;;;;;18.08;10.65;;;8.20;99.90;;;;;;4976881;28;20027;-81
2023/10/06 08:10:19;;;;;;;28.98;17.02;;;8.30;99.90;;;;;;4953223;28;20053;-81
2023/10/06 08:12:56;;;;;;;59.22;12.10;;;8.40;99.90;;;;;;4968956;28;20153;-82
2023/10/06 08:15:22;;;;;;;25.35;13.48;;;8.40;99.90;;;;;;4973506;28;20139;-82
2023/10/06 08:17:53;;;;;;;18.85;10.15;;;8.50;99.90;;;;;;4955689;28;20395;-82
2023/10/06 08:20:20;;;;;;;15.38;9.93;;;8.60;99.90;;;;;;4976634;28;20076;-82
2023/10/06 08:22:47;;;;;;;18.15;10.27;;;8.70;99.90;;;;;;4972213;28;20099;-82
2023/10/06 08:25:20;;;;;;;16.23;9.98;;;8.80;99.90;;;;;;4973253;28;20144;-80
2023/10/06 08:27:47;;;;;;;16.52;10.25;;;8.90;99.90;;;;;;4969268;28;20030;-79
2023/10/06 08:30:17;;;;;;;22.63;11.38;;;8.80;99.90;;;;;;4974865;28;20047;-78
2023/10/06 08:32:47;;;;;;;18.85;12.20;;;8.90;99.90;;;;;;4958216;28;20664;-81
2023/10/06 08:35:13;;;;;;;18.25;11.18;;;9.00;99.90;;;;;;4949310;28;20064;-81
2023/10/06 08:37:42;;;;;;;24.10;12.02;;;9.10;99.90;;;;;;4938195;28;20054;-80
2023/10/06 08:40:17;;;;;;;22.55;12.30;;;9.20;99.90;;;;;;4951603;28;20047;-79
2023/10/06 08:42:54;;;;;;;18.02;11.63;;;9.20;99.90;;;;;;4936162;28;20119;-80
2023/10/06 08:45:25;;;;;;;18.33;11.68;;;9.30;99.90;;;;;;4966237;28;20101;-80
2023/10/06 08:47:55;;;;;;;18.48;11.25;;;9.50;99.90;;;;;;4957271;28;20392;-79
2023/10/06 08:50:24;;;;;;;22.52;12.55;;;9.50;99.90;;;;;;4974818;28;20026;-79
2023/10/06 08:52:51;;;;;;;20.02;11.90;;;9.60;99.90;;;;;;4972288;28;20588;-80
2023/10/06 08:55:24;;;;;;;21.88;12.57;;;9.60;99.90;;;;;;4969300;28;20058;-81
2023/10/06 08:57:52;;;;;;;18.65;12.43;;;9.70;99.90;;;;;;4964348;28;20677;-81
2023/10/06 09:00:31;;;;;;;20.50;13.23;;;9.80;99.90;;;;;;4949804;28;20027;-80
2023/10/06 09:03:08;;;;;;;17.50;10.70;;;9.90;99.90;;;;;;4958788;28;20090;-79
2023/10/06 09:05:50;;;;;;;18.92;10.70;;;10.00;99.90;;;;;;4972022;28;20023;-81
2023/10/06 09:08:18;;;;;;;14.32;9.93;;;10.10;99.90;;;;;;4972235;28;20027;-80
2023/10/06 09:10:56;;;;;;;20.27;10.80;;;10.30;99.90;;;;;;4969729;28;20047;-80
2023/10/06 09:13:22;;;;;;;13.50;9.60;;;10.40;99.90;;;;;;4969576;28;20175;-80
2023/10/06 09:15:59;;;;;;;12.60;8.55;;;10.60;99.90;;;;;;4976693;28;20484;-80
2023/10/06 09:18:31;;;;;;;12.93;8.93;;;10.80;99.90;;;;;;4936213;28;20302;-79
2023/10/06 09:21:12;;;;;;;13.75;8.68;;;11.00;99.90;;;;;;4968931;28;20031;-81
2023/10/06 09:23:40;;;;;;;13.60;8.35;;;11.10;99.90;;;;;;4962746;28;20031;-80
2023/10/06 09:26:11;;;;;;;11.35;7.95;;;11.20;99.90;;;;;;4957827;28;20486;-78
2023/10/06 09:28:53;;;;;;;11.63;8.25;;;11.30;99.90;;;;;;4950080;28;20098;-79
2023/10/06 09:31:35;;;;;;;10.85;7.97;;;11.50;99.90;;;;;;4963908;28;20039;-80
2023/10/06 09:34:01;;;;;;;13.48;8.10;;;11.60;99.90;;;;;;4960053;28;20059;-80
2023/10/06 09:36:33;;;;;;;9.98;7.03;;;11.70;99.90;;;;;;4968255;28;20499;-79
2023/10/06 09:39:20;;;;;;;12.80;7.85;;;11.80;99.90;;;;;;4969394;28;20101;-81
2023/10/06 09:41:47;;;;;;;12.38;7.63;;;12.00;99.90;;;;;;4970166;28;20031;-78
2023/10/06 09:44:17;;;;;;;9.88;6.53;;;12.00;99.90;;;;;;4973691;28;20053;-81
2023/10/06 09:46:43;;;;;;;15.18;7.53;;;12.10;99.90;;;;;;4970544;28;20031;-81
2023/10/06 09:49:15;;;;;;;11.25;7.55;;;12.20;99.90;;;;;;4975696;28;20042;-80
2023/10/06 09:51:42;;;;;;;10.88;6.47;;;12.30;99.90;;;;;;4973067;28;20035;-81
2023/10/06 09:54:11;;;;;;;10.70;6.13;;;12.30;99.90;;;;;;4971411;28;20031;-79
2023/10/06 09:56:42;;;;;;;13.18;6.78;;;12.50;99.90;;;;;;4974437;28;20046;-79
2023/10/06 09:59:15;;;;;;;9.45;6.40;;;12.60;99.90;;;;;;4970085;28;20023;-81
2023/10/06 10:01:47;;;;;;;8.80;6.05;;;12.80;99.90;;;;;;4973595;28;20042;-79
2023/10/06 10:04:14;;;;;;;13.85;6.95;;;12.90;99.90;;;;;;4971495;28;20042;-80
2023/10/06 10:06:43;;;;;;;11.30;6.95;;;13.00;99.90;;;;;;4969417;28;20030;-78
2023/10/06 10:09:16;;;;;;;12.13;6.18;;;13.20;99.90;;;;;;4954657;28;20039;-80
2023/10/06 10:12:13;;;;;;;10.20;5.53;;;13.30;99.90;;;;;;4953258;28;20046;-79
2023/10/06 10:15:11;;;;;;;7.28;5.57;;;13.20;99.90;;;;;;4963749;28;20030;-79
2023/10/06 10:17:58;;;;;;;8.40;5.10;;;13.30;99.90;;;;;;4968291;28;20034;-79
2023/10/06 10:20:25;;;;;;;6.82;5.50;;;13.30;99.90;;;;;;4962737;28;20099;-78
2023/10/06 10:22:56;;;;;;;14.35;6.25;;;13.30;99.90;;;;;;4955838;28;20031;-78
2023/10/06 10:25:23;;;;;;;13.02;5.78;;;13.20;99.90;;;;;;4969335;28;20031;-78
2023/10/06 10:28:15;;;;;;;9.57;5.18;;;13.30;99.90;;;;;;4969399;28;20085;-78
2023/10/06 10:30:57;;;;;;;12.68;5.40;;;13.30;99.90;;;;;;4972048;28;20038;-78
2023/10/06 10:33:24;;;;;;;5.90;4.78;;;13.40;99.90;;;;;;4970849;28;20054;-78
2023/10/06 10:36:15;;;;;;;5.53;3.22;;;13.60;99.90;;;;;;4958483;28;20126;-78
2023/10/06 10:38:42;;;;;;;7.43;4.05;;;13.80;99.90;;;;;;4967924;28;20101;-78
2023/10/06 10:41:11;;;;;;;6.85;3.30;;;13.90;99.90;;;;;;4970196;28;20050;-78
2023/10/06 10:43:48;;;;;;;8.65;3.10;;;14.10;99.90;;;;;;4966506;28;20039;-80
2023/10/06 10:46:41;;;;;;;5.68;2.45;;;14.30;99.90;;;;;;4966072;28;20129;-78
2023/10/06 10:49:09;;;;;;;3.13;2.03;;;14.40;99.90;;;;;;4958230;28;20046;-79
2023/10/06 10:51:57;;;;;;;6.00;2.28;;;14.50;99.90;;;;;;4959289;28;20038;-78
2023/10/06 10:54:27;;;;;;;21.55;12.18;;;14.60;99.90;;;;;;4957899;28;20058;-80
2023/10/06 10:57:01;;;;;;;5.22;2.38;;;14.60;99.90;;;;;;4954115;28;20043;-79
2023/10/06 11:00:00;;;;;;;5.18;2.67;;;14.60;99.90;;;;;;4944128;28;20020;-80
2023/10/06 11:02:35;;;;;;;3.10;1.75;;;14.70;99.90;;;;;;4962974;28;20830;-78
2023/10/06 11:05:03;;;;;;;6.85;2.03;;;14.70;99.90;;;;;;4965822;28;20027;-79
2023/10/06 11:07:29;;;;;;;5.13;2.38;;;14.80;99.90;;;;;;4967745;28;20023;-80
2023/10/06 11:09:57;;;;;;;5.28;2.20;;;14.80;99.90;;;;;;4967887;28;20447;-78
2023/10/06 11:12:24;;;;;;;8.50;1.60;;;14.90;99.90;;;;;;4964720;28;20496;-78
2023/10/06 11:14:53;;;;;;;5.60;2.25;;;14.90;99.90;;;;;;4959740;28;20713;-79
2023/10/06 11:17:24;;;;;;;5.40;1.95;;;14.90;99.90;;;;;;4960193;28;20064;-79
2023/10/06 11:22:53;;;;;;;3.22;1.58;;;14.90;99.90;;;;;;4961638;28;20022;-79
2023/10/06 11:25:26;;;;;;;6.20;1.75;;;15.00;99.90;;;;;;4965624;28;20183;-78
2023/10/06 11:27:56;;;;;;;4.20;1.70;;;15.00;99.90;;;;;;4965548;28;20146;-78
2023/10/06 11:30:23;;;;;;;4.13;1.40;;;15.10;99.90;;;;;;4962532;28;20688;-78
2023/10/06 11:32:51;;;;;;;4.80;1.98;;;15.10;99.90;;;;;;4930312;28;20050;-80
2023/10/06 11:35:20;;;;;;;7.57;1.73;;;15.20;99.90;;;;;;4964985;28;20034;-79
2023/10/06 11:37:48;;;;;;;5.40;1.98;;;15.20;99.90;;;;;;4964727;28;20093;-80
2023/10/06 11:40:15;;;;;;;5.10;1.70;;;15.10;99.90;;;;;;4963339;28;20073;-80
2023/10/06 11:42:41;;;;;;;5.70;1.63;;;15.10;99.90;;;;;;4958277;28;20085;-79
2023/10/06 11:45:24;;;;;;;3.90;1.30;;;15.10;99.90;;;;;;4947849;28;20086;-80
2023/10/06 11:47:51;;;;;;;4.50;1.60;;;15.20;99.90;;;;;;4967680;28;20039;-78
2023/10/06 11:50:22;;;;;;;2.83;1.30;;;15.20;99.90;;;;;;4963870;28;20039;-78
2023/10/06 11:52:49;;;;;;;5.07;1.45;;;15.30;99.90;;;;;;4970268;28;20137;-78
2023/10/06 11:55:44;;;;;;;5.38;1.40;;;15.30;99.90;;;;;;4960408;28;20038;-78
2023/10/06 11:58:10;;;;;;;3.70;1.48;;;15.40;99.90;;;;;;4958539;28;20055;-78
2023/10/06 12:00:42;;;;;;;3.58;1.75;;;15.40;99.90;;;;;;4969633;28;20492;-78
2023/10/06 12:03:13;;;;;;;3.33;1.40;;;15.50;99.90;;;;;;4961266;28;20395;-79
2023/10/06 12:05:43;;;;;;;1.80;1.30;;;15.50;99.90;;;;;;4962759;28;20097;-79
2023/10/06 12:08:11;;;;;;;3.95;1.50;;;15.60;99.90;;;;;;4961821;28;20034;-79
2023/10/06 12:10:48;;;;;;;6.68;1.80;;;15.60;99.90;;;;;;4959872;28;20035;-79
2023/10/06 12:13:13;;;;;;;4.75;1.90;;;15.70;99.90;;;;;;4966078;28;20251;-78
2023/10/06 12:15:39;;;;;;;4.75;1.48;;;15.70;99.90;;;;;;4969511;28;20491;-80
2023/10/06 12:18:05;;;;;;;3.42;1.23;;;15.70;99.90;;;;;;4956427;28;20034;-79
2023/10/06 12:20:35;;;;;;;5.03;1.52;;;15.80;99.90;;;;;;4957134;28;20467;-79
2023/10/06 12:23:01;;;;;;;4.45;1.38;;;15.70;99.90;;;;;;4964700;28;20058;-79
2023/10/06 12:25:27;;;;;;;5.53;1.55;;;15.70;99.90;;;;;;4939954;28;20068;-79
2023/10/06 12:27:53;;;;;;;4.22;1.63;;;15.70;99.90;;;;;;4966525;28;20601;-78
2023/10/06 12:30:19;;;;;;;3.38;1.40;;;15.70;99.90;;;;;;4961313;28;20065;-79
2023/10/06 12:32:48;;;;;;;4.32;1.63;;;15.70;99.90;;;;;;4961036;28;20055;-77
2023/10/06 12:35:21;;;;;;;4.28;1.55;;;15.80;99.90;;;;;;4960859;28;20038;-79
2023/10/06 12:37:48;;;;;;;3.60;1.50;;;15.80;99.90;;;;;;4956315;28;20502;-77
2023/10/06 12:40:16;;;;;;;5.97;1.23;;;15.80;99.90;;;;;;4972809;28;20046;-79
2023/10/06 12:42:42;;;;;;;3.75;1.52;;;15.80;99.90;;;;;;4976092;28;20447;-79
2023/10/06 12:45:13;;;;;;;4.72;1.63;;;15.80;99.90;;;;;;4972690;28;20106;-78
2023/10/06 12:47:40;;;;;;;3.45;1.30;;;15.80;99.90;;;;;;4972156;28;20129;-78
2023/10/06 12:50:08;;;;;;;3.15;1.27;;;15.80;99.90;;;;;;4968856;28;20041;-80
2023/10/06 12:52:37;;;;;;;4.63;1.65;;;15.80;99.90;;;;;;4983517;28;20243;-79
2023/10/06 12:55:13;;;;;;;4.68;1.48;;;15.80;99.90;;;;;;4977117;28;20101;-79
2023/10/06 12:57:40;;;;;;;3.38;1.52;;;15.80;99.90;;;;;;4973756;23;20052;-78
2023/10/06 13:00:08;;;;;;;5.57;1.63;;;15.70;99.90;;;;;;4968943;28;20027;-79
2023/10/06 13:02:35;;;;;;;5.32;1.52;;;15.70;99.90;;;;;;4979232;28;20034;-78
2023/10/06 13:05:16;;;;;;;8.48;2.00;;;15.70;99.90;;;;;;4975871;28;20372;-79
2023/10/06 13:07:46;;;;;;;4.72;1.55;;;15.70;99.90;;;;;;4967815;28;20117;-79
2023/10/06 13:10:21;;;;;;;4.40;1.70;;;15.70;99.90;;;;;;4968822;28;20615;-79
2023/10/06 13:12:46;;;;;;;4.90;1.67;;;15.60;99.90;;;;;;4959626;28;20109;-79
2023/10/06 13:15:17;;;;;;;3.15;1.65;;;15.60;99.90;;;;;;4970271;28;20589;-78
2023/10/06 13:17:50;;;;;;;3.03;1.40;;;15.60;99.90;;;;;;4953209;28;20142;-79
2023/10/06 13:20:17;;;;;;;5.13;2.00;;;15.60;99.90;;;;;;4972984;28;20043;-79